createdAt,value
2022-11-14T00:00:51.606Z,10.90
2022-11-14T00:03:37.178Z,12.30
2022-11-14T00:06:22.536Z,14.07
2022-11-14T00:09:07.872Z,11.75
2022-11-14T00:11:54.187Z,13.55
2022-11-14T00:14:39.469Z,13.82
2022-11-14T00:17:26.048Z,13.98
2022-11-14T00:20:12.535Z,17.60
2022-11-14T00:22:58.031Z,15.68
2022-11-14T00:25:47.109Z,18.42
2022-11-14T00:28:32.693Z,18.25
2022-11-14T00:31:18.536Z,15.80
2022-11-14T00:34:04.651Z,16.45
2022-11-14T00:36:50.139Z,17.35
2022-11-14T00:39:35.748Z,13.80
2022-11-14T00:42:21.614Z,15.50
2022-11-14T00:45:07.417Z,14.23
2022-11-14T00:47:53.619Z,12.80
2022-11-14T00:50:39.400Z,13.88
2022-11-14T00:53:24.681Z,14.27
2022-11-14T00:56:10.209Z,15.52
2022-11-14T00:58:55.909Z,14.63
2022-11-14T01:01:41.336Z,14.13
2022-11-14T01:04:26.820Z,12.90
2022-11-14T01:07:12.371Z,14.50
2022-11-14T01:09:57.728Z,16.13
2022-11-14T01:12:43.110Z,13.18
2022-11-14T01:15:28.872Z,15.10
2022-11-14T01:18:17.528Z,12.15
2022-11-14T01:21:08.940Z,14.38
2022-11-14T01:23:54.378Z,16.20
2022-11-14T01:26:39.881Z,12.98
2022-11-14T01:29:25.366Z,13.82
2022-11-14T01:32:10.749Z,12.23
2022-11-14T01:34:56.418Z,13.82
2022-11-14T01:37:41.864Z,12.80
2022-11-14T01:40:27.769Z,12.82
2022-11-14T01:43:19.228Z,12.85
2022-11-14T01:46:05.174Z,13.55
2022-11-14T01:48:58.337Z,11.88
2022-11-14T01:51:47.513Z,13.75
2022-11-14T01:54:37.036Z,14.60
2022-11-14T01:57:29.191Z,16.27
2022-11-14T02:00:15.496Z,19.55
2022-11-14T02:03:01.917Z,16.50
2022-11-14T02:05:48.956Z,14.27
2022-11-14T02:08:35.647Z,16.70
2022-11-14T02:11:21.095Z,14.00
2022-11-14T02:14:07.506Z,15.13
2022-11-14T02:17:14.693Z,15.43
2022-11-14T02:20:11.351Z,13.52
2022-11-14T02:22:56.671Z,16.02
2022-11-14T02:25:41.991Z,16.25
2022-11-14T02:28:28.123Z,16.17
2022-11-14T02:31:15.468Z,14.45
2022-11-14T02:34:01.528Z,14.85
2022-11-14T02:36:46.775Z,14.77
2022-11-14T02:39:32.261Z,14.25
2022-11-14T02:42:17.759Z,13.30
2022-11-14T02:45:03.479Z,16.08
2022-11-14T02:47:49.429Z,14.27
2022-11-14T02:50:34.784Z,14.68
2022-11-14T02:53:20.086Z,14.55
2022-11-14T02:56:05.598Z,15.40
2022-11-14T02:58:51.192Z,15.20
2022-11-14T03:01:36.551Z,14.90
2022-11-14T03:04:22.047Z,12.75
2022-11-14T03:07:07.981Z,15.23
2022-11-14T03:09:56.426Z,13.18
2022-11-14T03:12:41.769Z,12.18
2022-11-14T03:15:27.372Z,12.40
2022-11-14T03:18:13.119Z,12.35
2022-11-14T03:21:04.568Z,10.93
2022-11-14T03:23:50.221Z,12.30
2022-11-14T03:26:35.789Z,13.93
2022-11-14T03:29:21.166Z,11.15
2022-11-14T03:32:06.975Z,13.13
2022-11-14T03:34:54.731Z,11.20
2022-11-14T03:37:40.195Z,13.32
2022-11-14T03:40:25.675Z,14.27
2022-11-14T03:43:11.407Z,15.23
2022-11-14T03:45:59.908Z,12.52
2022-11-14T03:48:45.744Z,12.88
2022-11-14T03:51:31.070Z,14.15
2022-11-14T03:54:16.796Z,12.70
2022-11-14T03:57:02.129Z,13.10
2022-11-14T03:59:47.775Z,14.75
2022-11-14T04:02:33.306Z,12.10
2022-11-14T04:05:21.274Z,12.45
2022-11-14T04:08:07.360Z,12.35
2022-11-14T04:10:52.830Z,11.23
2022-11-14T04:13:38.655Z,12.45
2022-11-14T04:16:24.148Z,9.82
2022-11-14T04:19:09.698Z,12.70
2022-11-14T04:21:55.128Z,10.10
2022-11-14T04:24:40.447Z,12.77
2022-11-14T04:27:25.877Z,12.65
2022-11-14T04:30:11.591Z,13.75
2022-11-14T04:32:57.069Z,15.93
2022-11-14T04:35:42.452Z,12.80
2022-11-14T04:38:28.257Z,13.55
2022-11-14T04:41:19.894Z,12.80
2022-11-14T04:44:05.445Z,13.38
2022-11-14T04:46:50.884Z,13.32
2022-11-14T04:49:36.475Z,13.15
2022-11-14T04:52:21.967Z,14.70
2022-11-14T04:55:07.745Z,13.77
2022-11-14T04:57:57.617Z,14.50
2022-11-14T05:00:43.259Z,13.45
2022-11-14T05:03:29.244Z,13.60
2022-11-14T05:06:14.514Z,12.32
2022-11-14T05:09:00.369Z,11.75
2022-11-14T05:11:46.305Z,12.45
2022-11-14T05:14:32.036Z,13.13
2022-11-14T05:17:17.427Z,12.75
2022-11-14T05:20:02.798Z,15.68
2022-11-14T05:22:48.178Z,12.65
2022-11-14T05:25:33.597Z,13.40
2022-11-14T05:28:19.181Z,12.43
2022-11-14T05:31:07.405Z,13.45
2022-11-14T05:33:53.015Z,14.02
2022-11-14T05:36:38.341Z,13.82
2022-11-14T05:39:23.901Z,12.50
2022-11-14T05:42:09.326Z,11.10
2022-11-14T05:44:54.757Z,14.63
2022-11-14T05:47:40.002Z,12.98
2022-11-14T05:50:25.504Z,11.55
2022-11-14T05:53:10.816Z,12.20
2022-11-14T05:55:56.120Z,10.30
2022-11-14T05:58:41.475Z,14.35
2022-11-14T06:01:27.909Z,11.18
2022-11-14T06:04:14.913Z,11.20
2022-11-14T06:07:00.688Z,11.70
2022-11-14T06:09:45.902Z,12.85
2022-11-14T06:12:32.784Z,9.98
2022-11-14T06:15:18.813Z,12.77
2022-11-14T06:18:04.189Z,11.75
2022-11-14T06:20:49.577Z,12.10
2022-11-14T06:23:35.295Z,11.15
2022-11-14T06:26:31.497Z,14.05
2022-11-14T06:29:16.861Z,12.48
2022-11-14T06:32:02.248Z,12.40
2022-11-14T06:34:47.928Z,11.95
2022-11-14T06:37:35.487Z,10.75
2022-11-14T06:40:24.303Z,10.32
2022-11-14T06:43:09.932Z,10.25
2022-11-14T06:45:58.510Z,11.13
2022-11-14T06:48:46.130Z,11.68
2022-11-14T06:51:31.892Z,10.57
2022-11-14T06:54:17.394Z,11.32
2022-11-14T06:57:03.269Z,11.00
2022-11-14T06:59:48.862Z,8.88
2022-11-14T07:02:34.361Z,9.80
2022-11-14T07:05:19.696Z,11.60
2022-11-14T07:08:05.185Z,13.05
2022-11-14T07:10:50.676Z,12.60
2022-11-14T07:13:37.141Z,11.23
2022-11-14T07:16:31.267Z,9.20
2022-11-14T07:19:16.824Z,11.45
2022-11-14T07:22:02.700Z,12.75
2022-11-14T07:24:51.109Z,11.88
2022-11-14T07:27:36.366Z,9.95
2022-11-14T07:30:22.086Z,11.15
2022-11-14T07:33:07.480Z,11.00
2022-11-14T07:35:52.944Z,11.85
2022-11-14T07:38:39.222Z,12.48
2022-11-14T07:41:24.949Z,11.13
2022-11-14T07:44:10.433Z,11.35
2022-11-14T07:46:56.087Z,9.35
2022-11-14T07:49:41.644Z,9.65
2022-11-14T07:52:26.995Z,10.75
2022-11-14T07:55:12.650Z,10.95
2022-11-14T07:57:59.879Z,10.07
2022-11-14T08:00:45.317Z,12.02
2022-11-14T08:03:31.493Z,11.80
2022-11-14T08:06:17.598Z,8.98
2022-11-14T08:09:03.106Z,11.15
2022-11-14T08:11:49.048Z,9.20
2022-11-14T08:14:35.330Z,10.40
2022-11-14T08:17:22.024Z,11.70
2022-11-14T08:20:09.791Z,13.80
2022-11-14T08:23:02.558Z,11.40
2022-11-14T08:25:48.204Z,11.48
2022-11-14T08:28:33.819Z,11.80
2022-11-14T08:31:20.253Z,11.77
2022-11-14T08:34:05.456Z,10.20
2022-11-14T08:36:50.979Z,13.77
2022-11-14T08:39:36.394Z,14.38
2022-11-14T08:42:21.860Z,14.85
2022-11-14T08:45:07.847Z,12.15
2022-11-14T08:47:56.940Z,13.02
2022-11-14T08:50:42.539Z,10.30
2022-11-14T08:53:28.041Z,10.65
2022-11-14T08:56:13.613Z,10.73
2022-11-14T08:58:59.944Z,11.30
2022-11-14T09:01:45.714Z,9.48
2022-11-14T09:04:31.253Z,11.27
2022-11-14T09:07:16.840Z,12.05
2022-11-14T09:10:02.550Z,7.35
2022-11-14T09:12:48.164Z,9.13
2022-11-14T09:15:34.065Z,10.38
2022-11-14T09:18:19.662Z,11.05
2022-11-14T09:21:08.648Z,9.13
2022-11-14T09:23:58.921Z,8.98
2022-11-14T09:26:54.942Z,7.38
2022-11-14T09:29:42.307Z,8.98
2022-11-14T09:32:27.960Z,8.80
2022-11-14T09:35:13.219Z,8.60
2022-11-14T09:38:07.311Z,8.02
2022-11-14T09:41:13.833Z,7.95
2022-11-14T09:44:35.540Z,12.52
2022-11-14T09:47:33.552Z,8.52
2022-11-14T09:50:28.628Z,10.55
2022-11-14T09:53:27.853Z,9.43
2022-11-14T09:56:19.450Z,9.13
2022-11-14T09:59:10.933Z,9.35
2022-11-14T10:02:14.840Z,10.82
2022-11-14T10:05:12.215Z,9.35
2022-11-14T10:08:28.616Z,8.75
2022-11-14T10:11:25.028Z,10.32
2022-11-14T10:14:41.450Z,9.60
2022-11-14T10:17:42.011Z,12.45
2022-11-14T10:20:36.858Z,12.48
2022-11-14T10:23:50.277Z,8.88
2022-11-14T10:26:43.501Z,10.57
2022-11-14T10:29:47.044Z,10.13
2022-11-14T10:35:58.977Z,9.13
2022-11-14T10:39:00.604Z,7.50
2022-11-14T10:41:57.944Z,8.32
2022-11-14T10:44:56.062Z,8.85
2022-11-14T10:47:48.371Z,9.75
2022-11-14T10:50:33.927Z,10.45
2022-11-14T10:53:45.149Z,10.15
2022-11-14T10:56:30.609Z,10.93
2022-11-14T10:59:16.129Z,9.90
2022-11-14T11:02:01.869Z,8.73
2022-11-14T11:04:47.537Z,9.05
2022-11-14T11:08:14.952Z,11.57
2022-11-14T11:11:29.892Z,9.88
2022-11-14T11:14:19.724Z,10.00
2022-11-14T11:17:15.734Z,10.80
2022-11-14T11:20:33.575Z,10.98
2022-11-14T11:23:26.364Z,12.75
2022-11-14T11:26:19.253Z,9.15
2022-11-14T11:31:59.824Z,10.35
2022-11-14T11:34:45.791Z,10.90
2022-11-14T11:37:40.490Z,11.45
2022-11-14T11:40:29.019Z,13.18
2022-11-14T11:43:40.425Z,15.82
2022-11-14T11:46:46.164Z,15.70
2022-11-14T11:49:37.526Z,17.05
2022-11-14T11:52:49.000Z,13.80
2022-11-14T11:55:47.165Z,12.65
2022-11-14T11:58:48.687Z,16.33
2022-11-14T12:01:34.556Z,13.80
2022-11-14T12:04:20.193Z,13.65
2022-11-14T12:07:18.832Z,17.20
2022-11-14T12:10:14.979Z,17.30
2022-11-14T12:13:32.908Z,15.55
2022-11-14T12:16:21.307Z,17.25
2022-11-14T12:19:42.477Z,18.92
2022-11-14T12:22:45.954Z,17.55
2022-11-14T12:25:31.189Z,15.82
2022-11-14T12:28:42.090Z,16.55
2022-11-14T12:31:33.888Z,14.05
2022-11-14T12:34:37.067Z,13.15
2022-11-14T12:37:31.832Z,12.23
2022-11-14T12:40:35.390Z,12.38
2022-11-14T12:43:45.199Z,11.60
2022-11-14T12:47:05.960Z,15.27
2022-11-14T12:49:54.362Z,11.85
2022-11-14T12:52:46.390Z,11.40
2022-11-14T12:55:31.673Z,12.18
2022-11-14T12:58:38.004Z,13.98
2022-11-14T13:01:54.598Z,11.30
2022-11-14T13:04:43.097Z,12.32
2022-11-14T13:07:47.888Z,10.98
2022-11-14T13:10:40.968Z,11.95
2022-11-14T13:16:51.331Z,9.52
2022-11-14T13:20:04.932Z,8.35
2022-11-14T13:22:50.764Z,8.57
2022-11-14T13:25:36.261Z,7.97
2022-11-14T13:28:55.429Z,10.30
2022-11-14T13:31:48.203Z,8.90
2022-11-14T13:34:42.071Z,11.15
2022-11-14T13:37:36.373Z,6.95
2022-11-14T13:40:40.046Z,9.80
2022-11-14T13:43:47.468Z,7.85
2022-11-14T13:47:00.503Z,7.50
2022-11-14T13:50:03.813Z,7.63
2022-11-14T13:55:46.816Z,7.25
2022-11-14T13:59:02.020Z,7.82
2022-11-14T14:02:13.344Z,5.85
2022-11-14T14:05:28.338Z,8.15
2022-11-14T14:08:24.480Z,7.30
2022-11-14T14:11:55.206Z,8.45
2022-11-14T14:14:56.342Z,7.50
2022-11-14T14:18:06.494Z,6.72
2022-11-14T14:21:45.918Z,6.50
2022-11-14T14:24:48.502Z,6.85
2022-11-14T14:27:52.095Z,6.68
2022-11-14T14:30:40.770Z,6.68
2022-11-14T14:33:26.061Z,6.93
2022-11-14T14:36:28.579Z,9.15
2022-11-14T14:39:28.352Z,7.00
2022-11-14T14:42:13.767Z,7.90
2022-11-14T14:44:59.377Z,6.80
2022-11-14T14:48:15.531Z,8.20
2022-11-14T14:51:16.053Z,5.32
2022-11-14T14:54:07.822Z,7.55
2022-11-14T15:02:07.306Z,7.72
2022-11-14T15:04:55.805Z,6.68
2022-11-14T15:07:47.924Z,8.05
2022-11-14T15:10:34.035Z,9.10
2022-11-14T15:13:20.791Z,7.10
2022-11-14T15:16:11.291Z,6.85
2022-11-14T15:18:58.295Z,7.93
2022-11-14T15:21:44.109Z,5.57
2022-11-14T15:24:29.817Z,5.15
2022-11-14T15:27:20.343Z,7.35
2022-11-14T15:30:08.283Z,7.38
2022-11-14T15:32:59.121Z,6.68
2022-11-14T15:35:44.935Z,6.50
2022-11-14T15:38:43.993Z,7.28
2022-11-14T15:42:36.812Z,6.57
2022-11-14T15:45:28.474Z,4.97
2022-11-14T15:48:18.409Z,4.38
2022-11-14T15:51:07.890Z,6.45
2022-11-14T15:54:37.082Z,4.25
2022-11-14T15:57:22.578Z,5.63
2022-11-14T16:00:13.209Z,6.65
2022-11-14T16:02:59.145Z,5.25
2022-11-14T16:05:50.871Z,5.15
2022-11-14T16:08:36.592Z,5.40
2022-11-14T16:11:21.786Z,8.90
2022-11-14T16:14:07.318Z,6.75
2022-11-14T16:16:55.232Z,6.13
2022-11-14T16:19:40.897Z,7.43
2022-11-14T16:22:26.367Z,7.70
2022-11-14T16:25:29.287Z,6.88
2022-11-14T16:28:24.878Z,8.18
2022-11-14T16:31:14.547Z,6.15
2022-11-14T16:34:40.042Z,6.72
2022-11-14T16:37:25.280Z,7.13
2022-11-14T16:40:16.445Z,7.15
2022-11-14T16:43:03.624Z,7.38
2022-11-14T16:45:49.306Z,6.13
2022-11-14T16:48:34.734Z,6.93
2022-11-14T16:51:46.658Z,6.53
2022-11-14T16:54:33.156Z,6.35
2022-11-14T16:57:25.431Z,6.05
2022-11-14T17:00:12.791Z,5.43
2022-11-14T17:02:58.311Z,5.80
2022-11-14T17:05:49.982Z,8.07
2022-11-14T17:08:35.522Z,6.07
2022-11-14T17:11:27.159Z,8.15
2022-11-14T17:14:14.242Z,8.40
2022-11-14T17:17:03.099Z,7.32
2022-11-14T17:19:49.134Z,6.55
2022-11-14T17:22:37.852Z,6.78
2022-11-14T17:25:26.770Z,6.10
2022-11-14T17:28:13.155Z,5.75
2022-11-14T17:30:58.817Z,7.03
2022-11-14T17:33:44.683Z,5.78
2022-11-14T17:36:30.956Z,5.22
2022-11-14T17:39:16.888Z,5.20
2022-11-14T17:42:02.451Z,5.55
2022-11-14T17:44:47.563Z,6.00
2022-11-14T17:47:33.261Z,5.85
2022-11-14T17:50:19.109Z,5.22
2022-11-14T17:53:04.894Z,5.50
2022-11-14T17:55:57.263Z,6.35
2022-11-14T17:58:44.097Z,5.68
2022-11-14T18:01:33.971Z,4.47
2022-11-14T18:04:19.624Z,3.92
2022-11-14T18:07:05.186Z,4.90
2022-11-14T18:09:50.967Z,4.50
2022-11-14T18:12:39.154Z,5.18
2022-11-14T18:15:29.204Z,6.40
2022-11-14T18:18:14.898Z,5.15
2022-11-14T18:21:06.931Z,5.68
2022-11-14T18:24:18.610Z,4.78
2022-11-14T18:27:04.664Z,5.18
2022-11-14T18:30:41.606Z,5.78
2022-11-14T18:33:27.663Z,6.95
2022-11-14T18:36:16.224Z,5.65
2022-11-14T18:39:02.886Z,6.07
2022-11-14T18:42:19.398Z,5.85
2022-11-14T18:45:07.798Z,4.85
2022-11-14T18:47:56.720Z,7.68
2022-11-14T18:50:42.217Z,8.02
2022-11-14T18:53:32.249Z,8.68
2022-11-14T18:56:21.242Z,7.97
2022-11-14T18:59:09.906Z,6.75
2022-11-14T19:01:55.438Z,6.72
2022-11-14T19:04:41.382Z,6.32
2022-11-14T19:07:29.723Z,5.72
2022-11-14T19:10:15.553Z,5.68
2022-11-14T19:13:00.997Z,7.75
2022-11-14T19:19:55.144Z,5.40
2022-11-14T19:22:40.618Z,4.63
2022-11-14T19:25:26.426Z,5.30
2022-11-14T19:28:11.910Z,6.38
2022-11-14T19:31:06.105Z,5.55
2022-11-14T19:33:53.154Z,7.90
2022-11-14T19:36:58.764Z,5.60
2022-11-14T19:39:44.689Z,5.82
2022-11-14T19:42:33.089Z,5.28
2022-11-14T19:45:25.790Z,5.85
2022-11-14T19:48:11.534Z,5.10
2022-11-14T19:51:04.167Z,5.60
2022-11-14T19:53:49.695Z,5.63
2022-11-14T19:56:35.349Z,5.97
2022-11-14T19:59:24.380Z,6.20
2022-11-14T20:02:13.647Z,5.20
2022-11-14T20:04:59.441Z,5.20
2022-11-14T20:07:44.981Z,6.28
2022-11-14T20:10:30.547Z,4.18
2022-11-14T20:13:15.967Z,6.03
2022-11-14T20:16:09.876Z,4.60
2022-11-14T20:18:59.075Z,5.05
2022-11-14T20:21:45.272Z,6.45
2022-11-14T20:24:30.881Z,4.65
2022-11-14T20:27:16.622Z,5.05
2022-11-14T20:30:02.505Z,5.63
2022-11-14T20:32:47.891Z,6.28
2022-11-14T20:35:37.742Z,4.13
2022-11-14T20:38:23.493Z,6.60
2022-11-14T20:41:18.173Z,4.35
2022-11-14T20:44:04.100Z,5.07
2022-11-14T20:46:49.633Z,5.03
2022-11-14T20:49:58.685Z,4.72
2022-11-14T20:52:46.786Z,5.80
2022-11-14T20:55:33.597Z,3.72
2022-11-14T20:58:19.795Z,4.82
2022-11-14T21:01:05.204Z,4.15
2022-11-14T21:03:51.203Z,6.10
2022-11-14T21:06:36.827Z,4.43
2022-11-14T21:09:22.508Z,5.93
2022-11-14T21:12:13.712Z,5.03
2022-11-14T21:15:26.846Z,4.53
2022-11-14T21:18:21.542Z,4.60
2022-11-14T21:21:18.213Z,6.80
2022-11-14T21:24:04.195Z,5.63
2022-11-14T21:26:49.535Z,6.13
2022-11-14T21:29:35.294Z,4.43
2022-11-14T21:32:20.632Z,7.03
2022-11-14T21:35:09.915Z,6.32
2022-11-14T21:37:55.506Z,6.85
2022-11-14T21:40:41.271Z,7.43
2022-11-14T21:43:26.683Z,6.20
2022-11-14T21:46:14.190Z,5.85
2022-11-14T21:48:59.535Z,6.10
2022-11-14T21:51:45.616Z,9.48
2022-11-14T21:54:31.619Z,9.65
2022-11-14T21:57:16.824Z,7.93
2022-11-14T22:00:01.960Z,7.05
2022-11-14T22:03:05.895Z,7.30
2022-11-14T22:05:57.000Z,7.47
2022-11-14T22:08:42.874Z,7.05
2022-11-14T22:11:28.383Z,6.30
2022-11-14T22:14:14.034Z,6.30
2022-11-14T22:16:59.850Z,6.25
2022-11-14T22:19:45.259Z,6.50
2022-11-14T22:22:30.520Z,6.80
2022-11-14T22:25:15.869Z,5.90
2022-11-14T22:28:04.980Z,5.53
2022-11-14T22:31:08.154Z,8.18
2022-11-14T22:34:00.227Z,7.90
2022-11-14T22:36:45.979Z,5.63
2022-11-14T22:39:33.612Z,5.28
2022-11-14T22:42:23.370Z,6.20
2022-11-14T22:45:09.799Z,6.88
2022-11-14T22:47:59.091Z,5.65
2022-11-14T22:50:44.844Z,7.78
2022-11-14T22:53:32.133Z,5.90
2022-11-14T22:56:21.473Z,6.10
2022-11-14T22:59:06.942Z,6.30
2022-11-14T23:01:54.729Z,6.47
2022-11-14T23:04:41.035Z,5.82
2022-11-14T23:07:27.071Z,7.15
2022-11-14T23:10:12.601Z,4.38
2022-11-14T23:12:58.131Z,6.50
2022-11-14T23:15:47.942Z,5.97
2022-11-14T23:18:33.710Z,6.20
2022-11-14T23:21:34.653Z,8.10
2022-11-14T23:24:20.116Z,6.45
2022-11-14T23:27:05.503Z,6.70
2022-11-14T23:29:50.812Z,8.75
2022-11-14T23:32:36.330Z,7.28
2022-11-14T23:35:21.804Z,7.28
2022-11-14T23:38:07.627Z,6.50
2022-11-14T23:41:00.259Z,7.43
2022-11-14T23:43:46.708Z,6.78
2022-11-14T23:46:31.914Z,6.93
2022-11-14T23:49:17.528Z,8.07
2022-11-14T23:52:04.487Z,8.88
2022-11-14T23:54:51.453Z,6.57
2022-11-14T23:57:37.135Z,5.82
